createdAt,value
2022-10-14T00:03:26.852Z,1018.47
2022-10-14T00:17:26.882Z,1018.57
2022-10-14T00:31:26.863Z,1018.5
2022-10-14T00:45:26.886Z,1018.35
2022-10-14T00:59:26.883Z,1018.25
2022-10-14T01:13:26.891Z,1018.05
2022-10-14T01:27:26.939Z,1017.92
2022-10-14T01:41:26.907Z,1017.82
2022-10-14T01:55:26.919Z,1017.63
2022-10-14T02:09:26.999Z,1017.68
2022-10-14T02:23:27.189Z,1017.78
2022-10-14T02:37:27.208Z,1017.64
2022-10-14T02:51:27.197Z,1017.62
2022-10-14T03:05:27.209Z,1017.62
2022-10-14T03:19:27.234Z,1017.63
2022-10-14T03:33:29.803Z,1017.55
2022-10-14T03:47:27.279Z,1017.62
2022-10-14T04:01:27.591Z,1017.57
2022-10-14T04:15:27.573Z,1017.49
2022-10-14T04:29:27.957Z,1017.35
2022-10-14T04:43:27.939Z,1017.38
2022-10-14T04:57:27.976Z,1017.37
2022-10-14T05:11:27.954Z,1017.26
2022-10-14T05:26:27.962Z,1017.25
2022-10-14T05:41:28.186Z,1017.1
2022-10-14T05:56:28.177Z,1017.15
2022-10-14T06:11:28.178Z,1017.19
2022-10-14T06:26:28.196Z,1017.34
2022-10-14T06:41:28.213Z,1017.38
2022-10-14T06:56:28.221Z,1017.7
2022-10-14T07:11:28.230Z,1017.57
2022-10-14T07:26:28.308Z,1017.53
2022-10-14T07:41:28.590Z,1017.73
2022-10-14T07:56:28.746Z,1017.64
2022-10-14T08:11:28.748Z,1017.58
2022-10-14T08:26:28.749Z,1017.55
2022-10-14T08:41:28.752Z,1017.64
2022-10-14T08:56:28.776Z,1017.67
2022-10-14T09:12:28.798Z,1018
2022-10-14T09:27:28.797Z,1017.96
2022-10-14T09:42:28.805Z,1017.95
2022-10-14T09:57:28.834Z,1017.76
2022-10-14T10:12:28.836Z,1017.7
2022-10-14T10:27:28.881Z,1017.68
2022-10-14T10:42:28.901Z,1017.52
2022-10-14T11:03:14.316Z,1017.44
2022-10-14T11:18:14.946Z,1017.13
2022-10-14T11:33:14.399Z,1017.12
2022-10-14T11:48:14.436Z,1016.91
2022-10-14T12:03:14.429Z,1016.8
2022-10-14T12:18:14.476Z,1016.67
2022-10-14T12:33:17.763Z,1016.4
2022-10-14T12:49:14.666Z,1016.32
2022-10-14T13:04:17.505Z,1016.18
2022-10-14T13:19:16.103Z,1016.13
2022-10-14T13:34:14.712Z,1016.18
2022-10-14T14:04:16.329Z,1015.99
2022-10-14T14:19:15.239Z,1015.93
2022-10-14T14:34:14.803Z,1015.96
2022-10-14T14:49:16.327Z,1015.85
2022-10-14T15:04:14.903Z,1015.84
2022-10-14T15:35:15.099Z,1015.79
2022-10-14T15:50:15.105Z,1015.9
2022-10-14T16:05:19.619Z,1015.85
2022-10-14T16:20:15.102Z,1015.89
2022-10-14T16:35:15.393Z,1015.91
2022-10-14T16:50:15.428Z,1016.19
2022-10-14T17:05:15.584Z,1016.36
2022-10-14T17:19:15.588Z,1016.48
2022-10-14T17:33:15.631Z,1016.49
2022-10-14T17:47:15.609Z,1016.44
2022-10-14T18:01:15.655Z,1016.49
2022-10-14T18:15:15.665Z,1016.48
2022-10-14T18:29:15.738Z,1016.66
2022-10-14T18:43:15.844Z,1016.62
2022-10-14T18:57:15.833Z,1016.63
2022-10-14T19:11:15.959Z,1016.68
2022-10-14T19:25:15.818Z,1016.6
2022-10-14T19:39:15.915Z,1016.59
2022-10-14T19:53:15.950Z,1016.7
2022-10-14T20:07:15.944Z,1016.63
2022-10-14T20:21:15.941Z,1016.85
2022-10-14T20:35:16.001Z,1016.84
2022-10-14T20:49:15.947Z,1016.78
2022-10-14T21:03:16.006Z,1016.96
2022-10-14T21:17:15.986Z,1016.93
2022-10-14T21:31:17.420Z,1016.9
2022-10-14T21:45:15.980Z,1016.8
2022-10-14T21:59:15.975Z,1016.79
2022-10-14T22:13:15.996Z,1016.82
2022-10-14T22:27:15.996Z,1016.83
2022-10-14T22:41:15.994Z,1016.91
2022-10-14T22:55:15.999Z,1016.96
2022-10-14T23:09:15.999Z,1016.84
2022-10-14T23:23:16.052Z,1016.8
2022-10-14T23:37:15.981Z,1016.77
2022-10-14T23:51:16.025Z,1016.61
